createdAt,value
2022-07-25T00:01:44.111Z,94272.72
2022-07-25T00:04:12.589Z,94275.75
2022-07-25T00:06:41.832Z,94267.41
2022-07-25T00:09:08.810Z,94262.44
2022-07-25T00:11:35.914Z,94263.56
2022-07-25T00:14:02.729Z,94252.97
2022-07-25T00:16:29.931Z,94256.03
2022-07-25T00:18:56.872Z,94250.00
2022-07-25T00:21:23.549Z,94246.25
2022-07-25T00:23:50.597Z,94248.56
2022-07-25T00:26:17.391Z,94244.41
2022-07-25T00:28:44.395Z,94241.75
2022-07-25T00:31:11.272Z,94237.25
2022-07-25T00:33:37.994Z,94244.84
2022-07-25T00:36:04.957Z,94242.59
2022-07-25T00:38:31.532Z,94225.91
2022-07-25T00:40:58.246Z,94239.22
2022-07-25T00:43:24.925Z,94235.78
2022-07-25T00:45:51.567Z,94234.28
2022-07-25T00:48:18.733Z,94234.28
2022-07-25T00:50:45.586Z,94234.22
2022-07-25T00:53:12.316Z,94238.00
2022-07-25T00:55:39.050Z,94240.97
2022-07-25T00:58:05.774Z,94231.00
2022-07-25T01:00:32.865Z,94232.50
2022-07-25T01:02:59.814Z,94233.91
2022-07-25T01:05:26.574Z,94233.06
2022-07-25T01:07:54.200Z,94234.56
2022-07-25T01:10:20.822Z,94232.59
2022-07-25T01:12:49.459Z,94228.75
2022-07-25T01:15:21.000Z,94231.78
2022-07-25T01:17:48.214Z,94233.63
2022-07-25T01:20:26.110Z,94236.63
2022-07-25T01:22:53.231Z,94230.47
2022-07-25T01:25:20.765Z,94235.72
2022-07-25T01:27:54.449Z,94234.16
2022-07-25T01:30:23.982Z,94234.81
2022-07-25T01:32:50.766Z,94232.50
2022-07-25T01:35:17.889Z,94220.97
2022-07-25T01:37:45.551Z,94221.69
2022-07-25T01:40:13.934Z,94222.31
2022-07-25T01:42:41.016Z,94219.84
2022-07-25T01:45:08.296Z,94218.66
2022-07-25T01:47:35.059Z,94223.44
2022-07-25T01:50:01.798Z,94224.84
2022-07-25T01:52:28.397Z,94226.28
2022-07-25T01:54:55.005Z,94228.91
2022-07-25T01:57:21.829Z,94226.22
2022-07-25T01:59:50.987Z,94223.13
2022-07-25T02:02:17.575Z,94216.63
2022-07-25T02:04:44.217Z,94216.63
2022-07-25T02:07:10.811Z,94206.75
2022-07-25T02:09:37.448Z,94206.31
2022-07-25T02:12:04.259Z,94210.88
2022-07-25T02:14:30.836Z,94207.41
2022-07-25T02:16:57.495Z,94211.47
2022-07-25T02:19:24.174Z,94202.97
2022-07-25T02:21:50.824Z,94196.00
2022-07-25T02:24:17.684Z,94199.25
2022-07-25T02:26:44.300Z,94199.56
2022-07-25T02:29:10.969Z,94196.13
2022-07-25T02:31:37.583Z,94191.63
2022-07-25T02:34:04.950Z,94189.72
2022-07-25T02:36:31.847Z,94192.31
2022-07-25T02:38:58.549Z,94188.13
2022-07-25T02:41:25.217Z,94181.66
2022-07-25T02:43:51.931Z,94189.13
2022-07-25T02:46:19.212Z,94187.06
2022-07-25T02:48:45.868Z,94183.88
2022-07-25T02:51:12.557Z,94178.75
2022-07-25T02:53:56.744Z,94179.75
2022-07-25T02:56:24.648Z,94171.31
2022-07-25T02:58:51.194Z,94166.78
2022-07-25T03:01:17.966Z,94170.97
2022-07-25T03:03:44.809Z,94161.22
2022-07-25T03:06:11.463Z,94168.47
2022-07-25T03:08:38.041Z,94155.63
2022-07-25T03:11:04.817Z,94165.84
2022-07-25T03:13:33.163Z,94158.69
2022-07-25T03:15:59.991Z,94160.22
2022-07-25T03:18:26.576Z,94154.94
2022-07-25T03:20:53.173Z,94155.28
2022-07-25T03:23:19.815Z,94156.34
2022-07-25T03:25:46.551Z,94160.44
2022-07-25T03:28:13.125Z,94156.91
2022-07-25T03:30:39.713Z,94161.66
2022-07-25T03:33:06.330Z,94157.47
2022-07-25T03:35:32.905Z,94154.13
2022-07-25T03:38:01.812Z,94145.50
2022-07-25T03:40:28.518Z,94142.50
2022-07-25T03:42:55.120Z,94139.09
2022-07-25T03:45:21.733Z,94140.91
2022-07-25T03:47:48.340Z,94135.47
2022-07-25T03:50:15.006Z,94129.41
2022-07-25T03:52:41.825Z,94129.72
2022-07-25T03:55:10.822Z,94132.25
2022-07-25T03:57:37.929Z,94132.81
2022-07-25T04:00:07.255Z,94136.84
2022-07-25T04:02:34.294Z,94136.28
2022-07-25T04:05:01.101Z,94138.53
2022-07-25T04:07:27.764Z,94132.81
2022-07-25T04:09:54.352Z,94133.94
2022-07-25T04:12:20.954Z,94133.22
2022-07-25T04:14:47.549Z,94124.19
2022-07-25T04:17:14.143Z,94122.38
2022-07-25T04:19:41.133Z,94125.88
2022-07-25T04:22:07.763Z,94122.16
2022-07-25T04:24:34.377Z,94116.97
2022-07-25T04:27:00.945Z,94104.44
2022-07-25T04:29:27.568Z,94108.59
2022-07-25T04:31:54.182Z,94105.25
2022-07-25T04:34:21.004Z,94107.28
2022-07-25T04:36:47.600Z,94107.06
2022-07-25T04:39:14.231Z,94102.69
2022-07-25T04:41:40.974Z,94101.34
2022-07-25T04:44:09.108Z,94098.13
2022-07-25T04:46:36.031Z,94105.44
2022-07-25T04:49:02.733Z,94100.66
2022-07-25T04:51:29.359Z,94101.59
2022-07-25T04:53:56.004Z,94094.94
2022-07-25T04:56:22.604Z,94095.88
2022-07-25T04:58:49.442Z,94097.91
2022-07-25T05:01:16.260Z,94092.72
2022-07-25T05:03:50.028Z,94097.00
2022-07-25T05:06:18.265Z,94089.97
2022-07-25T05:08:45.381Z,94100.38
2022-07-25T05:11:12.026Z,94098.22
2022-07-25T05:13:38.613Z,94099.91
2022-07-25T05:16:05.639Z,94097.72
2022-07-25T05:18:34.307Z,94096.34
2022-07-25T05:21:01.153Z,94096.44
2022-07-25T05:23:27.773Z,94102.97
2022-07-25T05:25:54.415Z,94104.94
2022-07-25T05:28:20.978Z,94105.38
2022-07-25T05:30:47.618Z,94101.63
2022-07-25T05:33:14.200Z,94105.84
2022-07-25T05:35:40.953Z,94095.66
2022-07-25T05:38:07.597Z,94100.63
2022-07-25T05:40:34.221Z,94101.09
2022-07-25T05:43:03.243Z,94107.16
2022-07-25T05:45:30.808Z,94109.81
2022-07-25T05:47:57.440Z,94117.44
2022-07-25T05:50:24.182Z,94106.03
2022-07-25T05:52:51.032Z,94109.03
2022-07-25T05:55:17.840Z,94100.78
2022-07-25T05:57:44.487Z,94094.72
2022-07-25T06:00:12.122Z,94092.16
2022-07-25T06:02:38.898Z,94095.97
2022-07-25T06:05:05.818Z,94099.44
2022-07-25T06:07:32.408Z,94096.47
2022-07-25T06:09:59.021Z,94096.16
2022-07-25T06:12:25.597Z,94096.22
2022-07-25T06:14:52.437Z,94092.09
2022-07-25T06:17:19.036Z,94097.84
2022-07-25T06:19:45.637Z,94096.03
2022-07-25T06:22:12.639Z,94084.72
2022-07-25T06:24:41.416Z,94092.41
2022-07-25T06:27:08.946Z,94093.28
2022-07-25T06:29:35.763Z,94091.81
2022-07-25T06:32:02.904Z,94092.22
2022-07-25T06:34:29.680Z,94093.03
2022-07-25T06:36:57.616Z,94086.25
2022-07-25T06:39:25.206Z,94080.56
2022-07-25T06:41:52.161Z,94074.91
2022-07-25T06:44:18.751Z,94078.38
2022-07-25T06:46:45.402Z,94077.66
2022-07-25T06:49:12.398Z,94072.75
2022-07-25T06:51:39.070Z,94070.09
2022-07-25T06:54:05.869Z,94073.19
2022-07-25T06:56:33.142Z,94073.56
2022-07-25T06:59:00.378Z,94073.97
2022-07-25T07:01:27.481Z,94081.97
2022-07-25T07:03:54.202Z,94074.75
2022-07-25T07:06:20.918Z,94083.13
2022-07-25T07:08:47.736Z,94076.66
2022-07-25T07:11:16.776Z,94072.09
2022-07-25T07:13:43.365Z,94078.94
2022-07-25T07:16:10.018Z,94075.47
2022-07-25T07:18:37.229Z,94074.31
2022-07-25T07:21:05.498Z,94078.88
2022-07-25T07:23:32.763Z,94070.13
2022-07-25T07:25:59.861Z,94069.34
2022-07-25T07:28:26.657Z,94068.94
2022-07-25T07:33:39.999Z,94057.06
2022-07-25T07:36:06.842Z,94061.56
2022-07-25T07:38:33.446Z,94047.44
2022-07-25T07:41:00.102Z,94065.69
2022-07-25T07:43:29.997Z,94064.84
2022-07-25T07:46:00.722Z,94064.44
2022-07-25T07:48:28.211Z,94051.41
2022-07-25T07:50:55.001Z,94051.00
2022-07-25T07:53:21.754Z,94054.00
2022-07-25T07:55:55.107Z,94045.13
2022-07-25T07:58:21.794Z,94042.03
2022-07-25T08:00:51.608Z,94040.34
2022-07-25T08:03:21.895Z,94057.03
2022-07-25T08:05:49.367Z,94041.72
2022-07-25T08:08:16.398Z,94048.91
2022-07-25T08:10:45.535Z,94039.25
2022-07-25T08:13:24.106Z,94034.19
2022-07-25T08:15:59.364Z,94036.00
2022-07-25T08:18:27.440Z,94037.06
2022-07-25T08:20:54.611Z,94037.31
2022-07-25T08:23:22.326Z,94032.97
2022-07-25T08:25:49.182Z,94034.38
2022-07-25T08:28:15.871Z,94040.03
2022-07-25T08:30:42.690Z,94037.50
2022-07-25T08:33:13.434Z,94033.84
2022-07-25T08:35:41.840Z,94037.41
2022-07-25T08:38:11.405Z,94037.22
2022-07-25T08:40:38.159Z,94027.50
2022-07-25T08:43:04.922Z,94024.59
2022-07-25T08:45:33.394Z,94023.19
2022-07-25T08:48:00.048Z,94023.00
2022-07-25T08:50:29.629Z,94027.06
2022-07-25T08:53:16.210Z,94026.91
2022-07-25T08:55:46.807Z,94017.16
2022-07-25T08:58:16.080Z,94012.25
2022-07-25T09:00:43.149Z,94006.63
2022-07-25T09:03:10.602Z,94014.09
2022-07-25T09:05:38.437Z,94010.00
2022-07-25T09:08:13.143Z,94020.44
2022-07-25T09:10:45.370Z,94009.03
2022-07-25T09:13:16.627Z,94010.84
2022-07-25T09:15:52.104Z,94005.31
2022-07-25T09:18:25.090Z,94008.19
2022-07-25T09:20:54.947Z,94001.97
2022-07-25T09:23:28.954Z,94010.69
2022-07-25T09:26:05.409Z,94003.22
2022-07-25T09:28:33.456Z,93999.22
2022-07-25T09:31:01.441Z,94004.09
2022-07-25T09:33:29.288Z,94001.63
2022-07-25T09:35:56.302Z,93997.16
2022-07-25T09:38:24.697Z,93986.91
2022-07-25T09:40:58.888Z,93995.41
2022-07-25T09:43:44.576Z,94000.66
2022-07-25T09:46:12.467Z,94001.03
2022-07-25T09:48:44.124Z,94003.03
2022-07-25T09:51:10.751Z,93993.78
2022-07-25T09:53:37.399Z,93994.16
2022-07-25T09:56:04.110Z,94000.34
2022-07-25T09:58:30.699Z,93993.25
2022-07-25T10:01:07.418Z,93985.47
2022-07-25T10:03:50.329Z,93993.88
2022-07-25T10:06:22.120Z,93990.09
2022-07-25T10:08:51.050Z,93987.19
2022-07-25T10:11:20.639Z,93993.09
2022-07-25T10:13:47.410Z,93991.06
2022-07-25T10:16:21.539Z,93983.09
2022-07-25T10:18:54.141Z,93991.63
2022-07-25T10:21:26.868Z,93990.13
2022-07-25T10:24:09.369Z,93990.00
2022-07-25T10:26:40.987Z,93991.63
2022-07-25T10:29:11.903Z,93983.31
2022-07-25T10:31:50.332Z,93981.38
2022-07-25T10:34:29.026Z,93976.59
2022-07-25T10:36:57.259Z,93975.69
2022-07-25T10:39:24.135Z,93975.47
2022-07-25T10:42:02.356Z,93978.81
2022-07-25T10:44:41.141Z,93972.97
2022-07-25T10:47:13.294Z,93978.91
2022-07-25T10:50:13.558Z,93963.88
2022-07-25T10:52:32.408Z,93961.78
2022-07-25T10:55:00.833Z,93968.59
2022-07-25T10:57:32.061Z,93970.34
2022-07-25T11:00:09.118Z,93950.13
2022-07-25T11:02:36.023Z,93979.97
2022-07-25T11:05:04.264Z,93975.84
2022-07-25T11:07:36.217Z,93970.34
2022-07-25T11:10:05.510Z,93960.91
2022-07-25T11:12:32.615Z,93959.34
2022-07-25T11:15:04.831Z,93947.50
2022-07-25T11:17:32.266Z,93951.06
2022-07-25T11:20:01.391Z,93944.06
2022-07-25T11:22:29.386Z,93964.63
2022-07-25T11:24:57.773Z,93937.44
2022-07-25T11:27:27.473Z,93936.72
2022-07-25T11:30:16.625Z,93949.47
2022-07-25T11:32:49.677Z,93945.31
2022-07-25T11:35:24.044Z,93949.06
2022-07-25T11:37:52.200Z,93932.28
2022-07-25T11:40:20.589Z,93927.56
2022-07-25T11:42:55.480Z,93923.72
2022-07-25T11:45:26.368Z,93916.91
2022-07-25T11:48:10.417Z,93912.69
2022-07-25T11:50:46.105Z,93914.50
2022-07-25T11:53:15.162Z,93918.16
2022-07-25T11:55:43.480Z,93913.31
2022-07-25T11:58:13.304Z,93904.91
2022-07-25T12:00:43.901Z,93911.66
2022-07-25T12:03:20.970Z,93898.25
2022-07-25T12:05:49.695Z,93888.91
2022-07-25T12:08:21.445Z,93900.00
2022-07-25T12:10:50.584Z,93886.41
2022-07-25T12:13:25.706Z,93897.44
2022-07-25T12:15:52.889Z,93893.69
2022-07-25T12:18:19.504Z,93890.97
2022-07-25T12:20:46.146Z,93883.31
2022-07-25T12:23:13.597Z,93880.84
2022-07-25T12:25:45.708Z,93880.53
2022-07-25T12:28:12.982Z,93888.16
2022-07-25T12:30:44.154Z,93884.97
2022-07-25T12:33:11.928Z,93893.44
2022-07-25T12:35:40.598Z,93881.09
2022-07-25T12:38:07.614Z,93884.72
2022-07-25T12:40:34.343Z,93879.53
2022-07-25T12:43:01.256Z,93872.28
2022-07-25T12:45:28.096Z,93881.56
2022-07-25T12:47:54.987Z,93863.97
2022-07-25T12:50:21.724Z,93848.91
2022-07-25T12:52:48.522Z,93862.47
2022-07-25T12:55:18.026Z,93866.44
2022-07-25T12:57:45.204Z,93854.00
2022-07-25T13:00:15.204Z,93860.28
2022-07-25T13:02:41.950Z,93862.47
2022-07-25T13:05:09.234Z,93859.34
2022-07-25T13:07:36.203Z,93856.28
2022-07-25T13:10:03.809Z,93850.94
2022-07-25T13:12:30.542Z,93867.66
2022-07-25T13:14:57.486Z,93851.72
2022-07-25T13:17:27.507Z,93850.31
2022-07-25T13:19:54.952Z,93840.72
2022-07-25T13:22:21.571Z,93839.22
2022-07-25T13:24:48.310Z,93835.19
2022-07-25T13:27:18.699Z,93815.53
2022-07-25T13:29:45.417Z,93821.31
2022-07-25T13:32:12.111Z,93830.91
2022-07-25T13:34:39.163Z,93834.31
2022-07-25T13:37:06.082Z,93832.59
2022-07-25T13:39:33.729Z,93820.63
2022-07-25T13:42:00.387Z,93827.97
2022-07-25T13:44:27.170Z,93819.31
2022-07-25T13:46:53.888Z,93819.88
2022-07-25T13:49:20.554Z,93810.97
2022-07-25T13:51:47.646Z,93809.00
2022-07-25T13:54:14.338Z,93816.19
2022-07-25T13:56:42.457Z,93815.13
2022-07-25T13:59:10.231Z,93812.91
2022-07-25T14:01:37.769Z,93812.25
2022-07-25T14:04:04.501Z,93811.22
2022-07-25T14:06:31.110Z,93812.53
2022-07-25T14:08:57.678Z,93817.50
2022-07-25T14:11:28.670Z,93806.19
2022-07-25T14:13:57.806Z,93817.00
2022-07-25T14:16:24.518Z,93815.50
2022-07-25T14:18:51.278Z,93813.53
2022-07-25T14:21:18.301Z,93810.50
2022-07-25T14:23:44.958Z,93806.41
2022-07-25T14:26:11.591Z,93796.31
2022-07-25T14:28:38.240Z,93794.97
2022-07-25T14:31:05.008Z,93804.84
2022-07-25T14:33:31.634Z,93790.53
2022-07-25T14:35:59.100Z,93789.06
2022-07-25T14:38:25.748Z,93785.00
2022-07-25T14:40:52.397Z,93779.84
2022-07-25T14:43:19.067Z,93786.75
2022-07-25T14:45:45.729Z,93780.22
2022-07-25T14:48:12.376Z,93779.69
2022-07-25T14:50:39.043Z,93799.59
2022-07-25T14:53:05.630Z,93794.16
2022-07-25T14:55:32.388Z,93796.28
2022-07-25T14:58:02.436Z,93797.78
2022-07-25T15:00:29.828Z,93798.06
2022-07-25T15:02:56.801Z,93800.19
2022-07-25T15:05:23.669Z,93804.16
2022-07-25T15:07:50.528Z,93809.91
2022-07-25T15:10:17.359Z,93808.78
2022-07-25T15:12:44.081Z,93797.63
2022-07-25T15:15:11.505Z,93809.09
2022-07-25T15:17:39.757Z,93802.88
2022-07-25T15:20:07.110Z,93806.19
2022-07-25T15:22:33.705Z,93803.47
2022-07-25T15:25:45.073Z,93803.00
2022-07-25T15:27:46.957Z,93801.81
2022-07-25T15:30:13.562Z,93805.34
2022-07-25T15:32:40.284Z,93801.69
2022-07-25T15:35:07.730Z,93799.22
2022-07-25T15:37:34.599Z,93803.09
2022-07-25T15:40:01.326Z,93808.94
2022-07-25T15:42:29.472Z,93807.84
2022-07-25T15:45:22.320Z,93804.59
2022-07-25T15:47:46.279Z,93799.06
2022-07-25T15:50:20.579Z,93816.94
2022-07-25T15:52:47.228Z,93807.69
2022-07-25T15:55:13.921Z,93817.91
2022-07-25T15:57:40.650Z,93804.06
2022-07-25T16:00:09.049Z,93810.84
2022-07-25T16:02:36.071Z,93811.44
2022-07-25T16:05:04.008Z,93810.75
2022-07-25T16:07:30.644Z,93810.34
2022-07-25T16:09:57.255Z,93812.47
2022-07-25T16:12:28.449Z,93813.09
2022-07-25T16:14:56.058Z,93807.09
2022-07-25T16:17:22.822Z,93809.66
2022-07-25T16:19:49.629Z,93809.38
2022-07-25T16:22:16.280Z,93812.22
2022-07-25T16:24:42.971Z,93804.97
2022-07-25T16:27:10.031Z,93795.66
2022-07-25T16:29:37.437Z,93799.72
2022-07-25T16:32:05.501Z,93800.03
2022-07-25T16:34:32.645Z,93797.00
2022-07-25T16:37:00.176Z,93795.06
2022-07-25T16:39:26.940Z,93787.22
2022-07-25T16:41:53.784Z,93780.00
2022-07-25T16:44:20.541Z,93790.84
2022-07-25T16:46:47.223Z,93792.16
2022-07-25T16:49:16.776Z,93790.38
2022-07-25T16:51:44.161Z,93786.03
2022-07-25T16:54:11.705Z,93790.38
2022-07-25T16:56:39.024Z,93794.16
2022-07-25T16:59:07.105Z,93788.13
2022-07-25T17:01:35.112Z,93792.94
2022-07-25T17:04:02.238Z,93786.47
2022-07-25T17:06:28.928Z,93781.34
2022-07-25T17:08:55.691Z,93776.72
2022-07-25T17:11:22.601Z,93787.56
2022-07-25T17:13:49.274Z,93796.44
2022-07-25T17:16:16.221Z,93801.66
2022-07-25T17:18:42.984Z,93805.44
2022-07-25T17:21:10.613Z,93802.44
2022-07-25T17:23:37.331Z,93820.47
2022-07-25T17:26:05.362Z,93811.88
2022-07-25T17:28:32.453Z,93805.53
2022-07-25T17:30:59.345Z,93816.81
2022-07-25T17:33:26.298Z,93818.69
2022-07-25T17:35:53.119Z,93816.75
2022-07-25T17:38:25.330Z,93811.84
2022-07-25T17:40:53.042Z,93820.28
2022-07-25T17:43:19.766Z,93830.84
2022-07-25T17:45:46.492Z,93834.06
2022-07-25T17:48:13.144Z,93837.44
2022-07-25T17:50:39.785Z,93836.66
2022-07-25T17:53:06.427Z,93837.03
2022-07-25T17:55:38.183Z,93841.41
2022-07-25T17:58:05.451Z,93834.81
2022-07-25T18:00:32.457Z,93850.63
2022-07-25T18:02:59.462Z,93849.69
2022-07-25T18:05:26.210Z,93841.59
2022-07-25T18:07:53.621Z,93844.00
2022-07-25T18:10:21.814Z,93848.25
2022-07-25T18:12:49.563Z,93852.06
2022-07-25T18:15:16.595Z,93860.91
2022-07-25T18:17:47.578Z,93855.59
2022-07-25T18:20:16.215Z,93849.34
2022-07-25T18:22:43.153Z,93848.38
2022-07-25T18:25:11.674Z,93848.75
2022-07-25T18:27:43.076Z,93849.03
2022-07-25T18:30:10.784Z,93840.16
2022-07-25T18:32:38.207Z,93837.81
2022-07-25T18:35:05.444Z,93848.25
2022-07-25T18:37:32.147Z,93848.81
2022-07-25T18:39:58.711Z,93849.03
2022-07-25T18:42:29.690Z,93851.13
2022-07-25T18:44:57.210Z,93851.66
2022-07-25T18:47:26.306Z,93846.84
2022-07-25T18:49:57.681Z,93853.09
2022-07-25T18:52:24.597Z,93859.31
2022-07-25T18:54:51.225Z,93857.19
2022-07-25T18:57:17.877Z,93858.09
2022-07-25T18:59:44.609Z,93860.53
2022-07-25T19:02:11.323Z,93844.75
2022-07-25T19:04:38.054Z,93853.50
2022-07-25T19:07:04.754Z,93842.19
2022-07-25T19:09:31.325Z,93858.59
2022-07-25T19:11:57.994Z,93855.69
2022-07-25T19:14:26.128Z,93859.53
2022-07-25T19:16:53.835Z,93853.47
2022-07-25T19:19:20.657Z,93869.91
2022-07-25T19:21:47.372Z,93873.84
2022-07-25T19:24:14.167Z,93878.88
2022-07-25T19:26:41.285Z,93888.13
2022-07-25T19:29:09.319Z,93896.94
2022-07-25T19:31:39.651Z,93878.09
2022-07-25T19:34:07.086Z,93899.06
2022-07-25T19:36:34.043Z,93912.06
2022-07-25T19:39:01.292Z,93925.50
2022-07-25T19:41:28.465Z,93934.31
2022-07-25T19:43:55.044Z,93942.75
2022-07-25T19:46:21.776Z,93935.56
2022-07-25T19:48:48.837Z,93940.19
2022-07-25T19:51:15.635Z,93944.44
2022-07-25T19:53:42.253Z,93944.88
2022-07-25T19:56:09.255Z,93939.97
2022-07-25T19:58:38.959Z,93944.19
2022-07-25T20:01:09.980Z,93939.31
2022-07-25T20:03:36.714Z,93957.28
2022-07-25T20:06:07.821Z,93948.53
2022-07-25T20:08:35.407Z,93954.72
2022-07-25T20:11:02.048Z,93956.31
2022-07-25T20:13:29.688Z,93974.66
2022-07-25T20:15:57.301Z,93975.81
2022-07-25T20:18:24.176Z,93973.59
2022-07-25T20:20:50.831Z,93969.81
2022-07-25T20:23:17.563Z,93964.13
2022-07-25T20:25:44.571Z,93971.78
2022-07-25T20:28:11.436Z,93974.84
2022-07-25T20:30:38.221Z,93985.53
2022-07-25T20:33:05.486Z,93979.06
2022-07-25T20:35:37.275Z,93974.50
2022-07-25T20:38:09.187Z,93972.66
2022-07-25T20:40:46.300Z,93977.25
2022-07-25T20:43:14.991Z,93979.91
2022-07-25T20:45:41.849Z,93962.41
2022-07-25T20:48:08.808Z,93998.59
2022-07-25T20:50:37.191Z,94004.69
2022-07-25T20:53:04.974Z,94008.50
2022-07-25T20:55:31.762Z,94008.50
2022-07-25T20:57:59.308Z,94006.97
2022-07-25T21:00:27.770Z,94017.66
2022-07-25T21:02:54.912Z,94023.75
2022-07-25T21:05:21.770Z,94018.78
2022-07-25T21:07:48.397Z,94016.88
2022-07-25T21:10:15.451Z,94022.56
2022-07-25T21:12:42.861Z,94026.75
2022-07-25T21:15:10.011Z,94031.69
2022-07-25T21:17:36.878Z,94043.13
2022-07-25T21:20:04.533Z,94037.81
2022-07-25T21:22:31.202Z,94050.72
2022-07-25T21:24:57.983Z,94045.03
2022-07-25T21:27:24.658Z,94066.34
2022-07-25T21:29:51.294Z,94058.69
2022-07-25T21:32:18.903Z,94071.66
2022-07-25T21:34:45.721Z,94076.19
2022-07-25T21:37:13.510Z,94072.00
2022-07-25T21:39:40.215Z,94069.34
2022-07-25T21:42:10.103Z,94078.47
2022-07-25T21:44:39.110Z,94080.00
2022-07-25T21:47:06.359Z,94084.53
2022-07-25T21:49:51.739Z,94090.59
2022-07-25T21:52:18.547Z,94086.03
2022-07-25T21:54:45.790Z,94091.38
2022-07-25T21:57:13.237Z,94092.06
2022-07-25T21:59:44.843Z,94102.69
2022-07-25T22:02:12.380Z,94084.41
2022-07-25T22:04:39.457Z,94098.50
2022-07-25T22:07:06.380Z,94111.00
2022-07-25T22:09:33.029Z,94105.66
2022-07-25T22:11:59.699Z,94116.66
2022-07-25T22:14:26.470Z,94109.38
2022-07-25T22:16:53.455Z,94121.56
2022-07-25T22:19:22.530Z,94128.00
2022-07-25T22:21:50.134Z,94127.63
2022-07-25T22:24:16.996Z,94134.41
2022-07-25T22:26:43.800Z,94131.38
2022-07-25T22:29:11.334Z,94134.41
2022-07-25T22:31:39.181Z,94137.81
2022-07-25T22:34:06.464Z,94124.50
2022-07-25T22:36:33.068Z,94133.94
2022-07-25T22:38:59.717Z,94130.13
2022-07-25T22:41:26.385Z,94141.94
2022-07-25T22:43:59.134Z,94147.25
2022-07-25T22:46:30.538Z,94149.91
2022-07-25T22:48:58.594Z,94155.56
2022-07-25T22:51:26.546Z,94150.56
2022-07-25T22:53:53.469Z,94165.06
2022-07-25T22:56:20.265Z,94168.47
2022-07-25T22:58:49.279Z,94168.47
2022-07-25T23:01:17.698Z,94173.72
2022-07-25T23:03:45.007Z,94181.38
2022-07-25T23:06:11.826Z,94181.38
2022-07-25T23:08:38.505Z,94186.34
2022-07-25T23:11:06.102Z,94198.50
2022-07-25T23:13:34.443Z,94200.41
2022-07-25T23:16:03.314Z,94213.34
2022-07-25T23:18:30.409Z,94217.53
2022-07-25T23:20:57.246Z,94214.13
2022-07-25T23:23:23.935Z,94219.09
2022-07-25T23:25:50.539Z,94224.03
2022-07-25T23:28:17.106Z,94226.28
2022-07-25T23:30:43.705Z,94231.56
2022-07-25T23:33:10.504Z,94227.00
2022-07-25T23:35:37.822Z,94229.25
2022-07-25T23:38:04.466Z,94240.56
2022-07-25T23:40:31.178Z,94235.22
2022-07-25T23:42:57.808Z,94236.00
2022-07-25T23:45:27.842Z,94224.53
2022-07-25T23:47:55.722Z,94229.09
2022-07-25T23:50:23.309Z,94237.44
2022-07-25T23:52:49.973Z,94228.34
2022-07-25T23:55:16.581Z,94237.09
2022-07-25T23:57:43.294Z,94243.53
